Time;durP1;ratioP1;P1;durP2;ratioP2;P2;SDS_P1;SDS_P2;PMS_P1;PMS_P2;Temp;Humidity;BMP_temperature;BMP_pressure;BME280_temperature;BME280_humidity;BME280_pressure;Samples;Min_cycle;Max_cycle;Signal;HPM_P1;HPM_P2
2021/07/19 00:02:07;;;;;;;11.88;6.97;;;;;;;;;;5112184;28;20023;-62
2021/07/19 00:04:35;;;;;;;10.32;6.00;;;;;;;;;;5111379;28;20024;-63
2021/07/19 00:07:01;;;;;;;9.43;5.63;;;;;;;;;;5112343;28;20031;-62
2021/07/19 00:09:27;;;;;;;9.65;5.68;;;;;;;;;;5111250;28;20027;-62
2021/07/19 00:11:54;;;;;;;10.30;6.03;;;;;;;;;;5092381;28;20069;-62
2021/07/19 00:14:20;;;;;;;9.35;5.47;;;;;;;;;;5089830;28;20407;-63
2021/07/19 00:16:46;;;;;;;9.07;5.30;;;;;;;;;;5110379;28;20020;-63
2021/07/19 00:19:12;;;;;;;9.23;5.93;;;;;;;;;;5110851;28;20560;-62
2021/07/19 00:21:38;;;;;;;10.70;6.28;;;;;;;;;;5112091;28;20027;-63
2021/07/19 00:24:05;;;;;;;11.77;5.60;;;;;;;;;;5110431;28;20479;-62
2021/07/19 00:26:31;;;;;;;10.18;5.13;;;;;;;;;;5109646;28;20484;-63
2021/07/19 00:28:57;;;;;;;10.48;6.55;;;;;;;;;;5111726;28;20107;-63
2021/07/19 00:31:23;;;;;;;11.38;5.82;;;;;;;;;;5111930;27;20030;-62
2021/07/19 00:33:49;;;;;;;10.80;5.55;;;;;;;;;;5092509;28;20083;-63
2021/07/19 00:36:15;;;;;;;9.10;5.70;;;;;;;;;;5110206;28;20027;-63
2021/07/19 00:38:41;;;;;;;9.82;5.35;;;;;;;;;;5092647;28;20054;-63
2021/07/19 00:41:08;;;;;;;11.05;5.78;;;;;;;;;;5110971;28;20558;-63
2021/07/19 00:43:34;;;;;;;13.00;6.05;;;;;;;;;;5111056;28;20016;-63
2021/07/19 00:46:00;;;;;;;13.07;6.50;;;;;;;;;;5090974;28;20024;-63
2021/07/19 00:48:26;;;;;;;11.88;6.57;;;;;;;;;;5109638;28;20126;-63
2021/07/19 00:50:52;;;;;;;12.98;6.82;;;;;;;;;;5111412;28;20028;-63
2021/07/19 00:53:18;;;;;;;9.07;5.63;;;;;;;;;;5110024;28;20023;-63
2021/07/19 00:55:45;;;;;;;10.50;5.82;;;;;;;;;;5111503;28;20076;-63
2021/07/19 00:58:12;;;;;;;12.50;6.05;;;;;;;;;;5110448;28;20023;-63
2021/07/19 01:00:39;;;;;;;9.65;5.80;;;;;;;;;;5092707;28;20044;-63
2021/07/19 01:03:05;;;;;;;11.07;6.50;;;;;;;;;;5110169;28;20035;-63
2021/07/19 01:05:31;;;;;;;12.00;5.55;;;;;;;;;;5109456;28;20043;-63
2021/07/19 01:07:58;;;;;;;9.63;5.00;;;;;;;;;;5110524;28;20035;-63
2021/07/19 01:10:25;;;;;;;12.32;5.75;;;;;;;;;;5111332;28;20024;-63
2021/07/19 01:12:53;;;;;;;8.95;5.07;;;;;;;;;;5110223;28;20027;-63
2021/07/19 01:15:20;;;;;;;9.57;5.43;;;;;;;;;;5110874;28;20031;-63
2021/07/19 01:17:46;;;;;;;11.23;5.57;;;;;;;;;;5108693;28;20038;-63
2021/07/19 01:20:13;;;;;;;15.00;6.03;;;;;;;;;;5092240;28;20039;-63
2021/07/19 01:22:42;;;;;;;16.92;7.53;;;;;;;;;;5108482;28;20016;-63
2021/07/19 01:25:27;;;;;;;13.82;7.68;;;;;;;;;;5111391;28;20016;-63
2021/07/19 01:28:03;;;;;;;16.20;8.50;;;;;;;;;;5110423;28;20157;-63
2021/07/19 01:30:30;;;;;;;12.35;7.63;;;;;;;;;;5092466;28;20024;-63
2021/07/19 01:32:57;;;;;;;17.67;9.30;;;;;;;;;;5109095;28;20128;-63
2021/07/19 01:35:23;;;;;;;19.10;10.32;;;;;;;;;;5110310;28;20019;-63
2021/07/19 01:37:50;;;;;;;17.23;8.52;;;;;;;;;;5110158;28;20023;-63
2021/07/19 01:40:17;;;;;;;24.80;11.18;;;;;;;;;;5110799;28;20016;-63
2021/07/19 01:42:44;;;;;;;26.25;12.00;;;;;;;;;;5109056;28;20038;-63
2021/07/19 01:45:11;;;;;;;20.30;11.90;;;;;;;;;;5090499;28;20043;-63
2021/07/19 01:47:38;;;;;;;19.45;10.63;;;;;;;;;;5110021;28;20027;-63
2021/07/19 01:50:05;;;;;;;25.23;12.65;;;;;;;;;;5109271;28;20020;-63
2021/07/19 01:52:32;;;;;;;26.30;11.60;;;;;;;;;;5107324;28;20070;-63
2021/07/19 01:54:58;;;;;;;22.60;11.63;;;;;;;;;;5109376;28;20035;-63
2021/07/19 01:57:25;;;;;;;21.08;11.18;;;;;;;;;;5109266;28;20062;-63
2021/07/19 01:59:51;;;;;;;23.75;11.15;;;;;;;;;;5110335;28;20081;-63
2021/07/19 02:02:20;;;;;;;28.00;13.57;;;;;;;;;;5109434;27;20475;-63
2021/07/19 02:04:46;;;;;;;26.40;14.63;;;;;;;;;;5090935;28;20445;-63
2021/07/19 02:07:12;;;;;;;29.30;13.32;;;;;;;;;;5109383;28;20031;-63
2021/07/19 02:09:39;;;;;;;27.65;14.73;;;;;;;;;;5109455;28;20046;-63
2021/07/19 02:12:07;;;;;;;35.08;16.35;;;;;;;;;;5108203;28;20031;-63
2021/07/19 02:14:34;;;;;;;27.50;15.18;;;;;;;;;;5109330;28;20030;-63
2021/07/19 02:17:01;;;;;;;27.00;15.18;;;;;;;;;;5089924;28;20911;-63
2021/07/19 02:19:28;;;;;;;27.48;14.85;;;;;;;;;;5090820;28;20106;-63
2021/07/19 02:21:55;;;;;;;39.72;16.52;;;;;;;;;;5090261;28;20016;-63
2021/07/19 02:24:26;;;;;;;32.10;16.52;;;;;;;;;;5107740;28;20662;-63
2021/07/19 02:26:52;;;;;;;34.33;16.40;;;;;;;;;;5109869;28;20030;-63
2021/07/19 02:29:19;;;;;;;29.40;17.25;;;;;;;;;;5109286;28;20028;-64
2021/07/19 02:31:48;;;;;;;33.97;17.48;;;;;;;;;;5091468;28;20686;-63
2021/07/19 02:34:15;;;;;;;29.05;14.88;;;;;;;;;;5108235;28;20032;-63
2021/07/19 02:36:41;;;;;;;27.95;15.80;;;;;;;;;;5107196;28;20115;-63
2021/07/19 02:39:07;;;;;;;29.90;14.93;;;;;;;;;;5109413;28;20503;-63
2021/07/19 02:41:33;;;;;;;22.85;13.20;;;;;;;;;;5109210;28;20024;-63
2021/07/19 02:44:01;;;;;;;19.55;12.82;;;;;;;;;;5107520;28;20032;-63
2021/07/19 02:46:28;;;;;;;26.90;13.25;;;;;;;;;;5109635;28;20032;-63
2021/07/19 02:48:55;;;;;;;25.38;14.32;;;;;;;;;;5107698;28;20031;-63
2021/07/19 02:51:21;;;;;;;23.30;13.85;;;;;;;;;;5109346;28;20050;-63
2021/07/19 02:53:49;;;;;;;27.15;15.23;;;;;;;;;;5108462;28;20566;-63
2021/07/19 02:56:16;;;;;;;25.35;15.05;;;;;;;;;;5106945;28;20028;-63
2021/07/19 02:58:42;;;;;;;24.33;16.25;;;;;;;;;;5109292;28;20028;-63
2021/07/19 03:01:10;;;;;;;26.10;17.13;;;;;;;;;;5091196;28;20073;-63
2021/07/19 03:03:38;;;;;;;24.30;16.27;;;;;;;;;;5108013;28;20110;-63
2021/07/19 03:06:09;;;;;;;23.08;15.60;;;;;;;;;;5106138;28;20019;-63
2021/07/19 03:08:36;;;;;;;27.67;15.00;;;;;;;;;;5109716;28;20028;-63
2021/07/19 03:11:21;;;;;;;29.67;15.73;;;;;;;;;;5109335;28;20027;-63
2021/07/19 03:13:57;;;;;;;19.70;12.93;;;;;;;;;;5106829;28;20410;-63
2021/07/19 03:16:25;;;;;;;39.15;22.50;;;;;;;;;;5108724;28;20032;-63
2021/07/19 03:18:52;;;;;;;27.83;18.10;;;;;;;;;;5107075;28;20028;-63
2021/07/19 03:21:18;;;;;;;29.15;17.95;;;;;;;;;;5109114;28;20491;-63
2021/07/19 03:23:45;;;;;;;24.27;17.00;;;;;;;;;;5106701;28;20047;-63
2021/07/19 03:26:11;;;;;;;31.23;17.13;;;;;;;;;;5108273;28;20101;-63
2021/07/19 03:28:38;;;;;;;25.75;16.90;;;;;;;;;;5109583;28;20577;-63
2021/07/19 03:31:05;;;;;;;27.17;16.02;;;;;;;;;;5109136;28;20042;-63
2021/07/19 03:33:32;;;;;;;24.05;15.88;;;;;;;;;;5108109;28;20411;-63
2021/07/19 03:35:58;;;;;;;25.85;16.60;;;;;;;;;;5105668;28;20092;-63
2021/07/19 03:38:25;;;;;;;18.25;14.52;;;;;;;;;;5108851;28;20050;-63
2021/07/19 03:40:54;;;;;;;29.77;15.07;;;;;;;;;;5109686;28;20062;-63
2021/07/19 03:43:20;;;;;;;21.55;13.57;;;;;;;;;;5106385;28;20042;-63
2021/07/19 03:45:47;;;;;;;18.85;13.05;;;;;;;;;;5094327;28;20516;-63
2021/07/19 03:48:16;;;;;;;17.92;11.57;;;;;;;;;;5111948;28;20398;-63
2021/07/19 03:50:43;;;;;;;18.00;11.50;;;;;;;;;;5112645;28;20403;-63
2021/07/19 03:53:09;;;;;;;17.63;11.60;;;;;;;;;;5110604;28;20039;-63
2021/07/19 03:55:35;;;;;;;18.27;10.95;;;;;;;;;;5110529;28;20047;-63
2021/07/19 03:58:01;;;;;;;18.30;11.15;;;;;;;;;;5112084;28;20122;-63
2021/07/19 04:00:30;;;;;;;19.92;10.75;;;;;;;;;;5091915;27;20047;-63
2021/07/19 04:02:56;;;;;;;20.08;11.98;;;;;;;;;;5110717;28;20015;-63
2021/07/19 04:05:24;;;;;;;14.85;8.85;;;;;;;;;;5108438;28;20542;-63
2021/07/19 04:07:50;;;;;;;14.85;9.77;;;;;;;;;;5111004;28;20027;-63
2021/07/19 04:10:19;;;;;;;17.40;10.55;;;;;;;;;;5108330;28;20175;-63
2021/07/19 04:12:46;;;;;;;19.38;9.27;;;;;;;;;;5109199;28;20504;-62
2021/07/19 04:15:12;;;;;;;16.77;9.50;;;;;;;;;;5093747;28;20479;-63
2021/07/19 04:17:38;;;;;;;16.00;9.60;;;;;;;;;;5110483;28;20019;-63
2021/07/19 04:20:06;;;;;;;13.05;10.02;;;;;;;;;;5092730;28;20034;-63
2021/07/19 04:22:33;;;;;;;16.65;10.75;;;;;;;;;;5107655;28;20536;-63
2021/07/19 04:24:59;;;;;;;14.73;9.57;;;;;;;;;;5112083;28;20027;-63
2021/07/19 04:27:25;;;;;;;15.50;10.00;;;;;;;;;;5112346;28;20055;-62
2021/07/19 04:29:54;;;;;;;18.02;10.60;;;;;;;;;;5111169;27;20039;-63
2021/07/19 04:32:21;;;;;;;14.68;10.00;;;;;;;;;;5108390;28;20062;-63
2021/07/19 04:34:48;;;;;;;16.85;9.80;;;;;;;;;;5110492;28;20016;-63
2021/07/19 04:37:14;;;;;;;17.30;9.73;;;;;;;;;;5111591;28;20049;-63
2021/07/19 04:39:40;;;;;;;16.15;9.73;;;;;;;;;;5108727;28;20019;-63
2021/07/19 04:42:07;;;;;;;16.17;9.02;;;;;;;;;;5110992;28;20081;-63
2021/07/19 04:44:33;;;;;;;14.60;8.88;;;;;;;;;;5110844;28;20023;-63
2021/07/19 04:46:59;;;;;;;13.18;8.38;;;;;;;;;;5089063;28;20031;-63
2021/07/19 04:49:26;;;;;;;17.98;9.35;;;;;;;;;;5092239;28;20036;-63
2021/07/19 04:51:53;;;;;;;13.82;9.18;;;;;;;;;;5110746;28;20099;-63
2021/07/19 04:54:26;;;;;;;13.90;9.10;;;;;;;;;;5109121;28;20051;-63
2021/07/19 04:56:59;;;;;;;16.35;10.60;;;;;;;;;;5110461;28;20114;-63
2021/07/19 04:59:27;;;;;;;16.75;10.63;;;;;;;;;;5111095;28;20035;-63
2021/07/19 05:01:54;;;;;;;16.00;9.60;;;;;;;;;;5111436;28;20115;-63
2021/07/19 05:04:24;;;;;;;18.52;10.18;;;;;;;;;;5093048;28;20024;-63
2021/07/19 05:06:51;;;;;;;13.63;9.38;;;;;;;;;;5110984;28;20027;-63
2021/07/19 05:09:18;;;;;;;20.13;11.10;;;;;;;;;;5093301;28;20039;-63
2021/07/19 05:11:44;;;;;;;15.57;10.50;;;;;;;;;;5109814;28;20027;-63
2021/07/19 05:14:11;;;;;;;18.48;10.88;;;;;;;;;;5110651;28;20470;-63
2021/07/19 05:16:37;;;;;;;17.17;10.82;;;;;;;;;;5112019;28;20023;-63
2021/07/19 05:19:04;;;;;;;17.15;10.43;;;;;;;;;;5093875;27;20109;-63
2021/07/19 05:21:36;;;;;;;14.43;8.95;;;;;;;;;;5094181;28;20024;-63
2021/07/19 05:24:06;;;;;;;15.32;8.82;;;;;;;;;;5110275;28;20042;-63
2021/07/19 05:26:32;;;;;;;14.93;8.85;;;;;;;;;;5112299;28;20594;-63
2021/07/19 05:28:59;;;;;;;12.02;7.85;;;;;;;;;;5094480;28;20040;-63
2021/07/19 05:31:26;;;;;;;19.77;10.13;;;;;;;;;;5108596;28;20025;-63
2021/07/19 05:33:52;;;;;;;13.32;8.65;;;;;;;;;;5110089;28;20383;-63
2021/07/19 05:36:18;;;;;;;17.92;9.27;;;;;;;;;;5106838;27;20072;-63
2021/07/19 05:38:44;;;;;;;17.27;8.73;;;;;;;;;;5104814;27;20483;-63
2021/07/19 05:41:11;;;;;;;16.55;8.43;;;;;;;;;;5090146;28;20480;-63
2021/07/19 05:43:37;;;;;;;16.58;8.02;;;;;;;;;;5111269;27;20028;-63
2021/07/19 05:46:03;;;;;;;14.90;7.90;;;;;;;;;;5105929;28;20125;-63
2021/07/19 05:48:29;;;;;;;19.20;9.05;;;;;;;;;;5110726;28;20073;-63
2021/07/19 05:50:57;;;;;;;13.60;8.18;;;;;;;;;;5101921;28;20051;-63
2021/07/19 05:53:23;;;;;;;16.48;8.68;;;;;;;;;;5087036;28;20032;-63
2021/07/19 05:55:49;;;;;;;14.38;8.43;;;;;;;;;;5099530;28;20024;-63
2021/07/19 05:58:16;;;;;;;14.52;7.32;;;;;;;;;;5088258;28;20762;-63
2021/07/19 06:00:42;;;;;;;14.57;8.07;;;;;;;;;;5095129;28;20031;-63
2021/07/19 06:03:09;;;;;;;16.48;8.77;;;;;;;;;;5086427;28;20024;-63
2021/07/19 06:05:36;;;;;;;16.05;7.53;;;;;;;;;;5110433;28;20023;-63
2021/07/19 06:08:02;;;;;;;12.93;7.63;;;;;;;;;;5108982;28;20023;-63
2021/07/19 06:10:28;;;;;;;14.93;7.80;;;;;;;;;;5107311;27;20478;-62
2021/07/19 06:12:54;;;;;;;13.57;8.15;;;;;;;;;;5091767;28;20028;-63
2021/07/19 06:15:20;;;;;;;11.02;6.72;;;;;;;;;;5110554;28;20023;-63
2021/07/19 06:17:47;;;;;;;13.27;7.22;;;;;;;;;;5107801;28;20030;-62
2021/07/19 06:20:16;;;;;;;12.70;7.57;;;;;;;;;;5107362;28;20503;-62
2021/07/19 06:22:42;;;;;;;11.48;5.82;;;;;;;;;;5087913;28;20023;-63
2021/07/19 06:25:10;;;;;;;18.75;8.50;;;;;;;;;;5107544;28;20023;-62
2021/07/19 06:27:36;;;;;;;14.82;7.28;;;;;;;;;;5098189;27;20083;-64
2021/07/19 06:30:02;;;;;;;12.77;6.45;;;;;;;;;;5108893;28;20526;-62
2021/07/19 06:32:28;;;;;;;12.85;6.80;;;;;;;;;;5098671;28;20066;-63
2021/07/19 06:34:54;;;;;;;11.77;7.18;;;;;;;;;;5109734;28;20033;-62
2021/07/19 06:37:20;;;;;;;12.85;6.13;;;;;;;;;;5109823;28;20024;-63
2021/07/19 06:39:47;;;;;;;12.07;6.45;;;;;;;;;;5110972;28;20008;-63
2021/07/19 06:42:13;;;;;;;15.02;7.32;;;;;;;;;;5106411;28;20031;-63
2021/07/19 06:44:39;;;;;;;13.45;7.13;;;;;;;;;;5110772;28;20024;-62
2021/07/19 06:47:05;;;;;;;12.07;6.68;;;;;;;;;;5090623;28;20483;-62
2021/07/19 06:49:31;;;;;;;13.80;7.13;;;;;;;;;;5094802;28;20032;-62
2021/07/19 06:51:57;;;;;;;13.27;6.43;;;;;;;;;;5096539;28;20121;-63
2021/07/19 06:54:23;;;;;;;12.63;5.80;;;;;;;;;;5089889;28;20128;-62
2021/07/19 06:56:49;;;;;;;14.70;7.03;;;;;;;;;;5092673;28;20516;-63
2021/07/19 06:59:15;;;;;;;14.30;6.35;;;;;;;;;;5110207;28;20024;-63
2021/07/19 07:01:41;;;;;;;13.85;6.85;;;;;;;;;;5109422;28;20068;-63
2021/07/19 07:04:08;;;;;;;14.77;6.43;;;;;;;;;;5108669;28;20027;-62
2021/07/19 07:06:34;;;;;;;13.68;6.13;;;;;;;;;;5108111;28;20028;-62
2021/07/19 07:09:01;;;;;;;13.70;6.55;;;;;;;;;;5107174;28;20765;-63
2021/07/19 07:11:30;;;;;;;11.98;5.95;;;;;;;;;;5078130;28;20452;-63
2021/07/19 07:13:57;;;;;;;15.60;6.93;;;;;;;;;;5093944;28;20012;-63
2021/07/19 07:16:23;;;;;;;16.33;8.35;;;;;;;;;;5106646;28;20059;-62
2021/07/19 07:18:49;;;;;;;17.35;8.30;;;;;;;;;;5087316;28;20165;-62
2021/07/19 07:21:16;;;;;;;13.93;7.10;;;;;;;;;;5092342;28;20032;-62
2021/07/19 07:23:42;;;;;;;14.95;8.30;;;;;;;;;;5103206;28;20094;-62
2021/07/19 07:26:08;;;;;;;16.05;8.27;;;;;;;;;;5104514;28;20063;-62
2021/07/19 07:28:34;;;;;;;13.27;7.05;;;;;;;;;;5100713;28;20036;-62
2021/07/19 07:31:00;;;;;;;15.63;5.93;;;;;;;;;;5086423;28;20130;-63
2021/07/19 07:33:26;;;;;;;11.23;5.65;;;;;;;;;;5104898;28;20032;-62
2021/07/19 07:35:52;;;;;;;12.25;5.95;;;;;;;;;;5090409;28;20032;-62
2021/07/19 07:38:18;;;;;;;9.45;5.25;;;;;;;;;;5104144;28;20020;-62
2021/07/19 07:40:45;;;;;;;12.75;5.63;;;;;;;;;;5102620;28;20039;-62
2021/07/19 07:43:11;;;;;;;10.70;5.65;;;;;;;;;;5109058;27;20016;-62
2021/07/19 07:45:37;;;;;;;9.65;6.13;;;;;;;;;;5107524;27;20023;-62
2021/07/19 07:48:04;;;;;;;14.68;6.40;;;;;;;;;;5113151;27;20487;-63
2021/07/19 07:50:30;;;;;;;9.32;5.78;;;;;;;;;;5094521;28;20192;-62
2021/07/19 07:52:56;;;;;;;13.05;6.40;;;;;;;;;;5095148;28;20411;-63
2021/07/19 07:55:22;;;;;;;17.40;7.55;;;;;;;;;;5107961;28;20074;-62
2021/07/19 07:57:49;;;;;;;15.38;6.53;;;;;;;;;;5114517;27;20028;-62
2021/07/19 08:00:16;;;;;;;12.30;7.18;;;;;;;;;;5100884;27;20663;-62
2021/07/19 08:02:43;;;;;;;11.50;6.82;;;;;;;;;;5083930;28;20052;-63
2021/07/19 08:05:10;;;;;;;12.45;6.85;;;;;;;;;;5108264;27;20020;-62
2021/07/19 08:07:36;;;;;;;11.57;6.57;;;;;;;;;;5100707;28;20028;-63
2021/07/19 08:10:03;;;;;;;23.77;8.45;;;;;;;;;;5108039;27;20036;-62
2021/07/19 08:12:29;;;;;;;11.75;7.07;;;;;;;;;;5101325;28;20038;-62
2021/07/19 08:14:56;;;;;;;17.63;8.55;;;;;;;;;;5100088;28;20101;-62
2021/07/19 08:17:23;;;;;;;13.57;7.38;;;;;;;;;;5104608;28;20541;-63
2021/07/19 08:19:49;;;;;;;11.70;5.97;;;;;;;;;;5084428;28;20019;-62
2021/07/19 08:22:15;;;;;;;13.27;6.38;;;;;;;;;;5104593;28;20015;-63
2021/07/19 08:24:41;;;;;;;14.27;6.72;;;;;;;;;;5102971;28;20065;-62
2021/07/19 08:27:08;;;;;;;11.95;5.90;;;;;;;;;;5106888;27;20089;-63
2021/07/19 08:29:34;;;;;;;16.08;7.65;;;;;;;;;;5105222;28;20082;-62
2021/07/19 08:32:00;;;;;;;13.80;6.50;;;;;;;;;;5106814;28;20032;-63
2021/07/19 08:34:26;;;;;;;13.98;6.38;;;;;;;;;;5095459;28;20103;-63
2021/07/19 08:36:55;;;;;;;17.17;7.20;;;;;;;;;;5097679;28;20024;-62
2021/07/19 08:39:21;;;;;;;14.88;6.93;;;;;;;;;;5098488;28;20114;-62
2021/07/19 08:41:47;;;;;;;12.98;7.65;;;;;;;;;;5098061;28;20077;-62
2021/07/19 08:44:14;;;;;;;17.58;7.95;;;;;;;;;;5096353;28;20031;-62
2021/07/19 08:46:41;;;;;;;14.60;6.90;;;;;;;;;;5087527;28;20031;-64
2021/07/19 08:49:07;;;;;;;15.80;6.90;;;;;;;;;;5101776;28;20784;-63
2021/07/19 08:51:38;;;;;;;12.68;6.72;;;;;;;;;;5084722;28;20020;-62
2021/07/19 08:54:04;;;;;;;13.00;6.40;;;;;;;;;;5084603;28;20052;-63
2021/07/19 08:56:30;;;;;;;10.75;5.72;;;;;;;;;;5105203;28;20054;-62
2021/07/19 08:58:57;;;;;;;9.70;5.35;;;;;;;;;;5084260;28;20028;-62
2021/07/19 09:01:23;;;;;;;13.10;6.50;;;;;;;;;;5091099;28;20028;-62
2021/07/19 09:03:49;;;;;;;17.80;8.30;;;;;;;;;;5104405;28;20488;-63
2021/07/19 09:06:15;;;;;;;14.52;7.45;;;;;;;;;;5107068;28;20036;-62
2021/07/19 09:08:51;;;;;;;18.17;7.28;;;;;;;;;;5106552;28;21022;-62
2021/07/19 09:11:18;;;;;;;11.13;7.20;;;;;;;;;;5107747;28;20508;-62
2021/07/19 09:14:04;;;;;;;14.27;6.82;;;;;;;;;;5107132;28;20505;-62
2021/07/19 09:16:43;;;;;;;15.32;6.68;;;;;;;;;;5109408;28;21924;-62
2021/07/19 09:19:10;;;;;;;13.30;6.97;;;;;;;;;;5090756;28;20024;-62
2021/07/19 09:21:38;;;;;;;13.10;6.25;;;;;;;;;;5102260;28;20031;-62
2021/07/19 09:24:06;;;;;;;11.20;6.60;;;;;;;;;;5100796;28;20042;-62
2021/07/19 09:26:32;;;;;;;13.40;6.80;;;;;;;;;;5106555;28;20495;-63
2021/07/19 09:28:58;;;;;;;10.52;6.38;;;;;;;;;;5098875;28;20415;-62
2021/07/19 09:31:31;;;;;;;13.52;6.85;;;;;;;;;;5099244;28;20024;-63
2021/07/19 09:33:59;;;;;;;11.77;7.47;;;;;;;;;;5098797;28;21371;-63
2021/07/19 09:36:27;;;;;;;13.27;6.93;;;;;;;;;;5101700;28;20028;-63
2021/07/19 09:39:06;;;;;;;12.63;6.50;;;;;;;;;;5102630;28;20544;-63
2021/07/19 12:14:41;;;;;;;12.35;6.38;;;;;;;;;;4638606;28;20081;-63
2021/07/19 12:17:08;;;;;;;14.00;7.15;;;;;;;;;;5111572;28;20049;-62
2021/07/19 12:19:34;;;;;;;11.68;6.82;;;;;;;;;;5111353;27;20093;-62
2021/07/19 12:22:01;;;;;;;12.05;6.13;;;;;;;;;;5110859;28;20031;-63
2021/07/19 12:24:29;;;;;;;13.20;5.72;;;;;;;;;;5108165;28;20008;-63
2021/07/19 12:26:56;;;;;;;12.70;6.20;;;;;;;;;;5111037;28;20043;-63
2021/07/19 12:29:26;;;;;;;12.30;5.47;;;;;;;;;;5108936;28;20031;-63
2021/07/19 12:31:53;;;;;;;15.00;7.15;;;;;;;;;;5111177;28;20015;-63
2021/07/19 12:34:21;;;;;;;11.43;6.93;;;;;;;;;;5108715;28;20047;-63
2021/07/19 12:36:54;;;;;;;10.60;6.00;;;;;;;;;;5117982;27;20036;-62
2021/07/19 12:39:22;;;;;;;12.65;5.60;;;;;;;;;;5112858;27;20024;-63
2021/07/19 12:41:49;;;;;;;14.38;6.38;;;;;;;;;;5112227;28;20027;-62
2021/07/19 12:44:15;;;;;;;10.48;5.28;;;;;;;;;;5091472;28;20331;-62
2021/07/19 12:46:43;;;;;;;9.57;5.93;;;;;;;;;;5112277;28;20020;-62
2021/07/19 12:49:09;;;;;;;12.75;5.70;;;;;;;;;;5112486;28;20110;-63
2021/07/19 12:51:36;;;;;;;12.30;6.00;;;;;;;;;;5112810;28;20023;-62
2021/07/19 12:54:06;;;;;;;13.40;6.25;;;;;;;;;;5110392;28;20028;-63
2021/07/19 12:56:32;;;;;;;10.27;5.25;;;;;;;;;;5111855;28;20094;-63
2021/07/19 12:58:59;;;;;;;9.55;5.55;;;;;;;;;;5112410;28;20102;-62
2021/07/19 13:01:33;;;;;;;10.40;6.55;;;;;;;;;;5110308;28;20023;-62
2021/07/19 13:04:00;;;;;;;10.65;5.95;;;;;;;;;;5090657;28;20042;-63
2021/07/19 13:06:26;;;;;;;13.73;6.50;;;;;;;;;;5093726;28;20027;-62
2021/07/19 13:08:52;;;;;;;16.70;6.50;;;;;;;;;;5111698;28;20051;-62
2021/07/19 13:11:18;;;;;;;8.00;5.03;;;;;;;;;;5107603;28;20027;-62
2021/07/19 13:13:44;;;;;;;13.02;6.22;;;;;;;;;;5110213;28;20509;-62
2021/07/19 13:16:10;;;;;;;11.95;5.75;;;;;;;;;;5107771;28;20039;-63
2021/07/19 13:18:36;;;;;;;10.82;5.93;;;;;;;;;;5111777;27;20494;-62
2021/07/19 13:21:04;;;;;;;13.27;5.47;;;;;;;;;;5110992;28;20024;-62
2021/07/19 13:23:35;;;;;;;12.23;6.15;;;;;;;;;;5102044;28;20023;-63
2021/07/19 13:26:06;;;;;;;11.27;6.18;;;;;;;;;;5089701;28;20028;-63
2021/07/19 13:28:32;;;;;;;17.05;6.90;;;;;;;;;;5107377;28;20017;-62
2021/07/19 13:31:03;;;;;;;11.35;5.72;;;;;;;;;;5083006;28;20028;-62
2021/07/19 13:33:29;;;;;;;13.02;5.13;;;;;;;;;;5110176;28;20175;-63
2021/07/19 13:35:58;;;;;;;10.20;5.63;;;;;;;;;;5094567;28;20446;-62
2021/07/19 13:38:35;;;;;;;11.05;5.28;;;;;;;;;;5095161;28;20024;-63
2021/07/19 13:41:01;;;;;;;12.40;7.63;;;;;;;;;;5093926;28;20027;-62
2021/07/19 13:43:27;;;;;;;14.23;7.00;;;;;;;;;;5101423;28;20024;-63
2021/07/19 13:45:57;;;;;;;11.52;7.03;;;;;;;;;;5089121;28;20016;-62
2021/07/19 13:48:23;;;;;;;15.48;8.55;;;;;;;;;;5101884;28;20126;-62
2021/07/19 13:50:50;;;;;;;12.18;7.13;;;;;;;;;;5094871;28;20020;-63
2021/07/19 13:53:16;;;;;;;13.48;7.70;;;;;;;;;;5078398;28;20390;-63
2021/07/19 13:55:42;;;;;;;15.43;7.68;;;;;;;;;;5095805;28;20066;-63
2021/07/19 13:58:08;;;;;;;15.00;7.03;;;;;;;;;;5097493;28;20123;-63
2021/07/19 14:00:35;;;;;;;12.60;7.00;;;;;;;;;;5102612;28;20031;-63
2021/07/19 14:03:01;;;;;;;13.35;8.45;;;;;;;;;;5093868;28;20032;-62
2021/07/19 14:05:27;;;;;;;13.95;6.97;;;;;;;;;;5070401;28;20020;-63
2021/07/19 14:07:53;;;;;;;15.80;8.15;;;;;;;;;;5103563;28;20050;-63
2021/07/19 14:10:19;;;;;;;16.02;7.70;;;;;;;;;;5099687;28;20488;-63
2021/07/19 14:12:45;;;;;;;14.38;7.07;;;;;;;;;;5094546;28;20541;-62
2021/07/19 14:15:12;;;;;;;13.65;6.93;;;;;;;;;;5089182;28;20556;-63
2021/07/19 14:17:38;;;;;;;13.63;7.05;;;;;;;;;;5102175;28;20015;-63
2021/07/19 14:20:07;;;;;;;12.30;7.57;;;;;;;;;;5102542;28;20029;-63
2021/07/19 14:22:35;;;;;;;16.10;8.13;;;;;;;;;;5084080;28;20019;-63
2021/07/19 14:25:01;;;;;;;22.05;7.15;;;;;;;;;;5103011;28;20098;-63
2021/07/19 14:27:27;;;;;;;17.20;7.88;;;;;;;;;;5101025;28;20042;-62
2021/07/19 14:29:53;;;;;;;13.27;7.68;;;;;;;;;;5104980;28;20027;-62
2021/07/19 14:32:19;;;;;;;12.57;7.22;;;;;;;;;;5084144;28;20518;-62
2021/07/19 14:34:45;;;;;;;14.70;7.57;;;;;;;;;;5091939;28;20023;-62
2021/07/19 14:37:12;;;;;;;14.82;7.45;;;;;;;;;;5074126;28;20035;-62
2021/07/19 14:39:38;;;;;;;12.35;7.00;;;;;;;;;;5093630;28;20020;-62
2021/07/19 14:42:04;;;;;;;11.38;6.68;;;;;;;;;;5097094;28;20365;-63
2021/07/19 14:44:30;;;;;;;16.75;7.50;;;;;;;;;;5074086;28;20491;-62
2021/07/19 14:46:56;;;;;;;13.48;7.95;;;;;;;;;;5104701;28;20039;-63
2021/07/19 14:49:22;;;;;;;14.80;7.65;;;;;;;;;;5103995;28;20525;-62
2021/07/19 14:51:48;;;;;;;12.75;7.63;;;;;;;;;;5096952;28;20008;-62
2021/07/19 14:54:14;;;;;;;14.68;7.38;;;;;;;;;;5073003;28;20358;-63
2021/07/19 14:56:40;;;;;;;13.20;7.57;;;;;;;;;;5102111;28;20050;-62
2021/07/19 14:59:07;;;;;;;15.57;7.45;;;;;;;;;;5094368;28;20028;-62
2021/07/19 15:01:33;;;;;;;13.35;8.30;;;;;;;;;;5098889;28;20261;-62
2021/07/19 15:03:59;;;;;;;11.40;7.00;;;;;;;;;;5099908;28;20097;-63
2021/07/19 15:06:25;;;;;;;12.30;6.68;;;;;;;;;;5096818;28;20073;-63
2021/07/19 15:08:51;;;;;;;13.00;7.97;;;;;;;;;;5075117;28;20023;-63
2021/07/19 15:11:17;;;;;;;12.60;7.68;;;;;;;;;;5101825;28;20086;-62
2021/07/19 15:13:43;;;;;;;14.10;7.40;;;;;;;;;;5084628;28;20062;-62
2021/07/19 15:16:09;;;;;;;14.50;7.72;;;;;;;;;;5098989;28;20043;-62
2021/07/19 15:18:35;;;;;;;14.23;8.02;;;;;;;;;;5097314;28;20023;-62
2021/07/19 15:21:01;;;;;;;17.80;8.18;;;;;;;;;;5087942;28;20028;-62
2021/07/19 15:23:27;;;;;;;15.02;7.68;;;;;;;;;;5092003;28;20065;-62
2021/07/19 15:25:53;;;;;;;14.50;7.60;;;;;;;;;;5090632;28;20088;-62
2021/07/19 15:28:19;;;;;;;18.45;8.90;;;;;;;;;;5108562;28;20089;-61
2021/07/19 15:30:47;;;;;;;13.35;7.68;;;;;;;;;;5110184;28;20071;-62
2021/07/19 15:33:16;;;;;;;12.82;7.07;;;;;;;;;;5110298;28;20499;-63
2021/07/19 15:35:42;;;;;;;13.95;7.72;;;;;;;;;;5107259;28;20027;-63
2021/07/19 15:38:08;;;;;;;14.50;7.30;;;;;;;;;;5109773;28;20073;-61
2021/07/19 15:40:34;;;;;;;12.77;7.30;;;;;;;;;;5110703;28;20059;-62
2021/07/19 15:43:00;;;;;;;12.95;7.80;;;;;;;;;;5113925;28;20050;-62
2021/07/19 15:45:26;;;;;;;12.35;7.85;;;;;;;;;;5111433;28;20103;-62
2021/07/19 15:47:52;;;;;;;13.38;7.25;;;;;;;;;;5113408;28;20019;-62
2021/07/19 15:50:18;;;;;;;13.48;7.28;;;;;;;;;;5108072;28;20023;-62
2021/07/19 15:52:44;;;;;;;12.32;7.32;;;;;;;;;;5111116;28;20035;-62
2021/07/19 15:55:11;;;;;;;11.70;7.82;;;;;;;;;;5110690;28;20020;-62
2021/07/19 15:57:37;;;;;;;13.77;7.93;;;;;;;;;;5110394;28;20023;-62
2021/07/19 16:00:05;;;;;;;12.75;7.35;;;;;;;;;;5112573;28;20059;-62
2021/07/19 16:02:31;;;;;;;16.77;7.45;;;;;;;;;;5112709;28;21412;-62
2021/07/19 16:04:58;;;;;;;14.85;7.70;;;;;;;;;;5105749;28;20084;-63
2021/07/19 16:07:25;;;;;;;12.85;7.55;;;;;;;;;;5105040;28;20030;-62
2021/07/19 16:09:51;;;;;;;15.48;7.28;;;;;;;;;;5098813;28;20028;-62
2021/07/19 16:12:18;;;;;;;12.85;6.53;;;;;;;;;;5097060;28;20153;-62
2021/07/19 16:14:44;;;;;;;15.65;8.77;;;;;;;;;;5096418;28;20535;-62
2021/07/19 16:17:10;;;;;;;13.95;8.07;;;;;;;;;;5103015;28;20521;-62
2021/07/19 16:19:36;;;;;;;12.27;6.95;;;;;;;;;;5085422;28;20565;-62
2021/07/19 16:22:02;;;;;;;11.10;7.22;;;;;;;;;;5105847;28;20133;-62
2021/07/19 16:24:28;;;;;;;14.40;7.45;;;;;;;;;;5108859;27;20015;-62
2021/07/19 16:26:54;;;;;;;13.85;6.75;;;;;;;;;;5100892;28;20095;-61
2021/07/19 16:29:20;;;;;;;11.93;7.70;;;;;;;;;;5095967;28;20143;-62
2021/07/19 16:31:46;;;;;;;13.48;7.35;;;;;;;;;;5099038;28;20034;-62
2021/07/19 16:34:12;;;;;;;17.98;7.63;;;;;;;;;;5110443;27;20020;-61
2021/07/19 16:36:39;;;;;;;13.23;6.68;;;;;;;;;;5101341;28;20619;-62
2021/07/19 16:39:05;;;;;;;12.95;7.60;;;;;;;;;;5093671;28;20085;-62
2021/07/19 16:41:31;;;;;;;13.15;7.95;;;;;;;;;;5092677;28;20488;-63
2021/07/19 16:43:57;;;;;;;15.82;7.93;;;;;;;;;;5094746;28;20546;-62
2021/07/19 16:46:23;;;;;;;17.45;7.38;;;;;;;;;;5089322;28;20107;-62
2021/07/19 16:48:49;;;;;;;14.20;6.78;;;;;;;;;;5111955;28;20139;-62
2021/07/19 16:51:15;;;;;;;11.38;6.28;;;;;;;;;;5112493;27;20571;-62
2021/07/19 16:53:41;;;;;;;12.43;6.40;;;;;;;;;;5112291;28;20058;-62
2021/07/19 16:56:08;;;;;;;13.68;7.10;;;;;;;;;;5108800;28;20028;-63
2021/07/19 16:58:34;;;;;;;11.73;5.88;;;;;;;;;;5108476;28;20106;-62
2021/07/19 17:01:00;;;;;;;10.45;5.90;;;;;;;;;;5108029;28;20127;-62